Time;durP1;ratioP1;P1;durP2;ratioP2;P2;SDS_P1;SDS_P2;PMS_P1;PMS_P2;Temp;Humidity;BMP_temperature;BMP_pressure;BME280_temperature;BME280_humidity;BME280_pressure;Samples;Min_cycle;Max_cycle;Signal;HPM_P1;HPM_P2
2022/05/15 00:02:26;;;;;;;28.45;11.23;;;;;;;15.28;58.65;101781.88;3540337;40;20641;-65
2022/05/15 00:04:51;;;;;;;26.85;11.32;;;;;;;15.24;58.51;101783.06;3541613;40;20063;-64
2022/05/15 00:07:17;;;;;;;25.20;10.48;;;;;;;15.18;58.66;101781.63;3554956;40;20089;-67
2022/05/15 00:09:43;;;;;;;24.88;8.82;;;;;;;15.15;58.58;101780.94;3573411;40;20053;-64
2022/05/15 00:12:11;;;;;;;29.05;8.40;;;;;;;15.02;58.66;101765.50;3573799;40;20049;-64
2022/05/15 00:14:37;;;;;;;26.00;8.02;;;;;;;15.08;58.86;101784.06;3569104;40;20387;-65
2022/05/15 00:17:03;;;;;;;26.65;8.45;;;;;;;15.03;58.74;101775.38;3572965;40;20092;-66
2022/05/15 00:19:29;;;;;;;22.63;7.60;;;;;;;15.03;58.71;101780.81;3573379;40;20068;-64
2022/05/15 00:21:55;;;;;;;22.17;6.60;;;;;;;14.98;58.85;101780.22;3573035;40;20060;-65
2022/05/15 00:24:21;;;;;;;24.00;7.50;;;;;;;14.94;59.22;101767.88;3573476;40;20515;-63
2022/05/15 00:26:46;;;;;;;17.60;7.18;;;;;;;14.92;58.77;101767.09;3573537;40;20116;-65
2022/05/15 00:29:12;;;;;;;24.17;7.38;;;;;;;14.89;59.46;101772.69;3572996;40;20060;-64
2022/05/15 00:31:38;;;;;;;20.27;7.43;;;;;;;14.84;59.83;101766.69;3575668;40;20057;-64
2022/05/15 00:34:04;;;;;;;25.70;7.43;;;;;;;14.82;59.67;101765.94;3574788;40;20053;-64
2022/05/15 00:36:30;;;;;;;24.23;7.50;;;;;;;14.79;59.11;101767.00;3574678;40;20072;-65
2022/05/15 00:38:58;;;;;;;22.92;6.93;;;;;;;14.72;59.49;101759.41;3573156;40;20356;-64
2022/05/15 00:41:25;;;;;;;24.15;7.40;;;;;;;14.78;59.19;101761.69;3571075;40;20537;-64
2022/05/15 00:43:57;;;;;;;21.40;7.10;;;;;;;14.76;59.57;101763.63;3564734;40;20060;-65
2022/05/15 00:46:30;;;;;;;21.33;7.28;;;;;;;14.72;59.77;101770.22;3573560;40;20092;-65
2022/05/15 00:49:01;;;;;;;22.08;7.05;;;;;;;14.70;59.47;101766.75;3557879;40;20367;-64
2022/05/15 00:52:01;;;;;;;22.48;7.25;;;;;;;14.65;59.67;101758.03;3574328;40;20060;-65
2022/05/15 00:54:45;;;;;;;24.55;7.38;;;;;;;14.63;59.80;101755.44;3572251;40;20049;-65
2022/05/15 00:57:23;;;;;;;17.00;6.65;;;;;;;14.61;59.71;101760.06;3572746;40;20056;-66
2022/05/15 01:00:03;;;;;;;23.77;6.60;;;;;;;14.58;59.91;101755.72;3575017;40;20097;-64
2022/05/15 01:02:37;;;;;;;24.70;7.47;;;;;;;14.51;59.92;101743.56;3565013;40;20067;-65
2022/05/15 01:05:04;;;;;;;20.00;6.88;;;;;;;14.52;60.18;101753.41;3574426;40;20102;-64
2022/05/15 01:07:30;;;;;;;22.48;7.38;;;;;;;14.48;60.09;101748.25;3574446;40;20049;-64
2022/05/15 01:09:56;;;;;;;22.95;6.85;;;;;;;14.49;60.23;101756.25;3573461;40;20312;-65
2022/05/15 01:12:22;;;;;;;20.38;6.47;;;;;;;14.47;60.42;101757.34;3574154;40;20375;-64
2022/05/15 01:14:50;;;;;;;27.33;7.50;;;;;;;14.45;60.23;101760.13;3571074;40;20062;-64
2022/05/15 01:17:17;;;;;;;21.70;6.72;;;;;;;14.43;60.19;101758.50;3573762;40;20056;-65
2022/05/15 01:19:43;;;;;;;25.45;7.55;;;;;;;14.41;60.53;101764.00;3574903;40;20045;-64
2022/05/15 01:22:15;;;;;;;20.70;6.78;;;;;;;14.36;60.77;101761.56;3574065;40;20360;-64
2022/05/15 01:24:42;;;;;;;21.70;6.85;;;;;;;14.35;60.33;101759.84;3575184;40;20122;-65
2022/05/15 01:27:13;;;;;;;17.65;6.82;;;;;;;14.32;60.86;101764.59;3570880;40;20359;-63
2022/05/15 01:29:45;;;;;;;21.08;6.97;;;;;;;14.31;60.31;101760.16;3571620;40;20057;-65
2022/05/15 01:32:13;;;;;;;22.52;6.80;;;;;;;14.29;60.62;101764.78;3574618;40;20045;-64
2022/05/15 01:34:40;;;;;;;26.35;7.88;;;;;;;14.08;60.72;101726.41;3572665;40;20072;-65
2022/05/15 01:37:07;;;;;;;24.77;6.25;;;;;;;14.24;60.59;101756.06;3570974;40;20096;-63
2022/05/15 01:39:34;;;;;;;18.42;6.82;;;;;;;14.20;60.77;101765.34;3573088;40;20399;-64
2022/05/15 01:42:01;;;;;;;26.75;6.65;;;;;;;14.20;60.89;101759.94;3573811;40;20053;-66
2022/05/15 01:44:26;;;;;;;22.60;7.30;;;;;;;14.17;61.18;101763.69;3569872;40;20048;-64
2022/05/15 01:46:53;;;;;;;19.40;6.50;;;;;;;14.14;60.90;101762.06;3571998;40;20060;-64
2022/05/15 01:49:19;;;;;;;21.42;7.13;;;;;;;14.10;61.40;101765.06;3560624;40;20056;-65
2022/05/15 01:51:46;;;;;;;21.67;6.97;;;;;;;14.07;61.96;101760.69;3567618;40;20048;-64
2022/05/15 01:54:13;;;;;;;19.60;7.10;;;;;;;14.02;61.71;101757.44;3572539;40;20054;-65
2022/05/15 01:56:40;;;;;;;20.23;6.45;;;;;;;13.99;61.31;101760.31;3570240;40;20091;-64
2022/05/15 01:59:08;;;;;;;24.95;7.15;;;;;;;13.94;62.18;101755.16;3572647;40;20044;-65
2022/05/15 02:01:35;;;;;;;18.02;6.63;;;;;;;13.95;61.92;101756.03;3564405;40;20100;-64
2022/05/15 02:04:01;;;;;;;20.45;6.53;;;;;;;13.93;62.12;101755.28;3562133;40;20044;-64
2022/05/15 02:06:28;;;;;;;22.85;6.55;;;;;;;13.38;62.24;101661.34;3573311;40;20111;-63
2022/05/15 02:08:55;;;;;;;21.52;6.43;;;;;;;13.87;62.39;101753.81;3572489;40;20093;-65
2022/05/15 02:11:21;;;;;;;20.50;6.68;;;;;;;13.85;62.36;101749.47;3573887;40;20049;-64
2022/05/15 02:13:46;;;;;;;20.55;7.07;;;;;;;13.81;62.10;101750.63;3571646;40;20119;-65
2022/05/15 02:16:12;;;;;;;24.38;6.72;;;;;;;13.78;62.32;101742.69;3573115;40;20055;-66
2022/05/15 02:18:38;;;;;;;24.58;7.82;;;;;;;13.75;62.57;101742.88;3573951;40;20037;-64
2022/05/15 02:21:04;;;;;;;29.08;7.88;;;;;;;13.59;62.79;101722.19;3573978;40;20049;-64
2022/05/15 02:23:30;;;;;;;25.83;7.82;;;;;;;13.69;63.21;101746.81;3571123;40;20057;-64
2022/05/15 02:25:56;;;;;;;22.40;7.53;;;;;;;13.66;63.22;101739.75;3573536;40;20118;-64
2022/05/15 02:28:21;;;;;;;22.65;7.65;;;;;;;13.65;63.45;101746.13;3572962;40;20148;-65
2022/05/15 02:30:48;;;;;;;24.15;7.90;;;;;;;13.61;63.20;101750.00;3573750;40;20084;-65
2022/05/15 02:33:14;;;;;;;22.73;8.20;;;;;;;13.59;63.68;101754.59;3568375;40;20060;-64
2022/05/15 02:35:39;;;;;;;22.13;8.27;;;;;;;13.56;63.72;101743.97;3572961;40;20061;-64
2022/05/15 02:38:05;;;;;;;22.10;9.15;;;;;;;13.54;63.51;101754.03;3572244;40;20271;-64
2022/05/15 02:40:31;;;;;;;23.52;8.88;;;;;;;13.53;63.16;101744.16;3568848;40;20151;-64
2022/05/15 02:42:57;;;;;;;23.40;8.07;;;;;;;13.53;63.31;101735.19;3570717;40;20056;-65
2022/05/15 02:45:24;;;;;;;25.02;9.13;;;;;;;13.51;63.55;101740.69;3573998;40;20170;-64
2022/05/15 02:47:50;;;;;;;20.58;8.55;;;;;;;13.51;63.72;101737.09;3569086;40;20054;-64
2022/05/15 02:53:02;;;;;;;22.92;9.02;;;;;;;13.46;64.00;101732.00;3573972;40;20047;-65
2022/05/15 02:55:28;;;;;;;24.48;9.18;;;;;;;13.41;63.66;101734.06;3573345;40;20060;-64
2022/05/15 02:57:54;;;;;;;23.80;9.85;;;;;;;13.43;63.73;101732.16;3571702;40;20052;-65
2022/05/15 03:00:25;;;;;;;21.90;9.30;;;;;;;13.42;64.19;101735.84;3573220;40;20059;-64
2022/05/15 03:02:50;;;;;;;24.10;9.77;;;;;;;13.39;63.52;101736.03;3573916;40;20053;-64
2022/05/15 03:05:19;;;;;;;24.95;9.68;;;;;;;13.35;64.09;101719.13;3563290;40;20051;-64
2022/05/15 03:07:45;;;;;;;24.20;9.65;;;;;;;13.35;64.00;101723.63;3573397;40;20060;-64
2022/05/15 03:10:16;;;;;;;24.35;9.43;;;;;;;13.34;64.03;101724.59;3571845;40;20084;-64
2022/05/15 03:12:41;;;;;;;23.90;9.65;;;;;;;13.31;64.43;101719.38;3570617;40;20048;-63
2022/05/15 03:15:12;;;;;;;28.50;8.82;;;;;;;13.28;64.29;101723.13;3570142;40;20045;-63
2022/05/15 03:17:38;;;;;;;26.75;9.27;;;;;;;13.27;64.57;101725.94;3565328;40;20045;-64
2022/05/15 03:20:05;;;;;;;20.17;8.52;;;;;;;13.26;64.77;101721.47;3570724;40;20049;-64
2022/05/15 03:22:32;;;;;;;22.83;8.88;;;;;;;13.23;64.71;101722.53;3568407;40;20046;-64
2022/05/15 03:24:57;;;;;;;24.08;8.48;;;;;;;13.21;64.69;101717.19;3571590;40;20060;-63
2022/05/15 03:27:23;;;;;;;22.20;8.18;;;;;;;13.19;64.46;101723.63;3571972;40;20056;-63
2022/05/15 03:29:48;;;;;;;23.38;8.07;;;;;;;13.20;64.48;101725.41;3569152;40;20065;-64
2022/05/15 03:32:14;;;;;;;27.67;7.88;;;;;;;13.17;64.36;101726.44;3567247;40;20068;-64
2022/05/15 03:34:39;;;;;;;26.33;8.40;;;;;;;13.17;64.76;101722.88;3568486;40;20053;-64
2022/05/15 03:37:05;;;;;;;22.08;7.80;;;;;;;13.11;64.35;101716.00;3571014;40;20044;-63
2022/05/15 03:39:31;;;;;;;23.98;8.35;;;;;;;13.12;64.64;101717.72;3569637;40;20091;-64
2022/05/15 03:41:56;;;;;;;26.55;7.93;;;;;;;13.10;64.82;101714.28;3567407;40;20053;-64
2022/05/15 03:44:22;;;;;;;22.95;7.97;;;;;;;12.96;64.81;101703.38;3569777;40;20059;-64
2022/05/15 03:46:48;;;;;;;20.70;7.15;;;;;;;13.01;65.08;101714.81;3573692;40;20118;-64
2022/05/15 03:49:14;;;;;;;22.95;7.38;;;;;;;12.97;64.97;101715.91;3573010;40;20049;-64
2022/05/15 03:51:41;;;;;;;24.02;7.50;;;;;;;12.97;64.72;101724.00;3573336;40;20045;-64
2022/05/15 03:54:09;;;;;;;20.50;6.15;;;;;;;12.89;65.30;101718.19;3573443;40;20092;-64
2022/05/15 03:56:51;;;;;;;19.92;7.13;;;;;;;12.92;65.86;101716.19;3569215;40;20048;-65
2022/05/15 03:59:35;;;;;;;22.90;7.45;;;;;;;12.74;65.77;101695.66;3570301;40;20059;-63
2022/05/15 04:02:03;;;;;;;25.80;7.90;;;;;;;12.88;65.47;101720.03;3570589;40;20046;-64
2022/05/15 04:04:29;;;;;;;23.48;7.32;;;;;;;12.87;66.32;101712.00;3569863;40;20121;-63
2022/05/15 04:06:54;;;;;;;24.38;7.75;;;;;;;12.88;65.78;101720.03;3572192;40;20396;-64
2022/05/15 04:09:21;;;;;;;24.83;6.95;;;;;;;12.87;65.60;101712.88;3569106;40;20064;-64
2022/05/15 04:11:47;;;;;;;24.55;7.30;;;;;;;12.87;65.80;101725.50;3575095;40;20392;-64
2022/05/15 04:14:14;;;;;;;20.25;6.47;;;;;;;12.87;66.12;101720.09;3572740;40;20123;-64
2022/05/15 04:16:39;;;;;;;25.38;7.05;;;;;;;12.86;65.56;101729.16;3574744;40;20045;-63
2022/05/15 04:19:06;;;;;;;25.63;7.07;;;;;;;12.86;66.37;101734.56;3572048;40;20307;-63
2022/05/15 04:21:37;;;;;;;21.10;8.07;;;;;;;12.86;65.69;101737.25;3573841;40;20102;-64
2022/05/15 04:24:21;;;;;;;28.45;7.40;;;;;;;12.85;66.26;101735.53;3575020;40;20041;-63
2022/05/15 04:26:47;;;;;;;25.42;8.93;;;;;;;12.85;66.74;101736.41;3576119;40;20057;-64
2022/05/15 04:29:13;;;;;;;21.42;7.72;;;;;;;12.59;66.49;101686.63;3574343;40;20315;-63
2022/05/15 04:31:39;;;;;;;26.35;8.13;;;;;;;12.82;66.59;101725.78;3573335;40;20059;-64
2022/05/15 04:34:05;;;;;;;24.98;8.45;;;;;;;12.85;66.43;101725.59;3565834;40;20052;-63
2022/05/15 04:36:34;;;;;;;23.63;8.48;;;;;;;12.87;67.01;101722.81;3572898;40;20045;-64
2022/05/15 04:39:01;;;;;;;23.67;8.00;;;;;;;12.83;66.80;101722.09;3572331;40;20053;-64
2022/05/15 04:41:27;;;;;;;21.27;8.10;;;;;;;12.90;66.42;101723.50;3565978;40;20053;-64
2022/05/15 04:43:53;;;;;;;25.67;8.52;;;;;;;12.93;66.30;101725.16;3574977;40;20387;-64
2022/05/15 04:46:19;;;;;;;19.98;8.45;;;;;;;12.97;66.22;101719.50;3575062;40;20060;-63
2022/05/15 04:48:45;;;;;;;22.05;8.48;;;;;;;13.02;66.27;101724.63;3574694;40;20075;-64
2022/05/15 04:51:10;;;;;;;20.02;8.35;;;;;;;13.05;66.33;101716.34;3574894;40;20052;-64
2022/05/15 04:53:36;;;;;;;21.60;7.93;;;;;;;13.08;66.10;101721.56;3574068;40;20056;-64
2022/05/15 04:56:02;;;;;;;25.10;8.85;;;;;;;13.05;66.38;101710.94;3574702;40;20300;-64
2022/05/15 04:58:28;;;;;;;24.13;9.15;;;;;;;13.14;66.56;101714.97;3574348;40;20380;-64
2022/05/15 05:00:54;;;;;;;23.85;9.20;;;;;;;13.21;66.43;101721.72;3571980;40;20356;-64
2022/05/15 05:03:20;;;;;;;27.15;9.35;;;;;;;13.28;66.43;101720.44;3574012;40;20134;-63
2022/05/15 05:05:47;;;;;;;22.33;8.82;;;;;;;13.31;66.13;101719.38;3574860;40;20068;-64
2022/05/15 05:08:13;;;;;;;28.60;8.48;;;;;;;13.37;66.35;101721.72;3574541;40;20348;-64
2022/05/15 05:10:40;;;;;;;23.30;8.20;;;;;;;13.44;66.55;101725.78;3573369;40;20120;-64
2022/05/15 05:13:06;;;;;;;22.48;8.15;;;;;;;13.49;65.79;101734.50;3573372;40;20056;-64
2022/05/15 05:15:33;;;;;;;26.73;8.45;;;;;;;13.51;66.00;101732.59;3567379;40;20372;-64
2022/05/15 05:17:58;;;;;;;20.02;7.05;;;;;;;13.58;65.42;101731.25;3574436;40;20058;-64
2022/05/15 05:20:25;;;;;;;24.35;8.02;;;;;;;13.52;65.34;101714.56;3570767;40;20131;-64
2022/05/15 05:22:51;;;;;;;25.17;8.27;;;;;;;13.70;64.86;101738.63;3567210;40;20110;-64
2022/05/15 05:25:18;;;;;;;22.35;7.63;;;;;;;13.79;64.57;101736.31;3574256;40;20060;-64
2022/05/15 05:27:45;;;;;;;21.88;7.53;;;;;;;13.85;64.65;101730.53;3572421;40;20061;-64
2022/05/15 05:30:21;;;;;;;23.70;6.97;;;;;;;13.91;64.06;101732.88;3568805;40;20053;-64
2022/05/15 05:32:47;;;;;;;27.05;7.97;;;;;;;13.94;64.24;101724.56;3574381;40;20056;-64
2022/05/15 05:35:15;;;;;;;23.55;7.68;;;;;;;14.04;63.91;101723.03;3575238;40;20115;-64
2022/05/15 05:37:41;;;;;;;20.95;7.53;;;;;;;14.11;63.96;101729.81;3569696;40;20108;-64
2022/05/15 05:40:10;;;;;;;18.23;7.45;;;;;;;14.18;63.43;101724.91;3574699;40;20129;-64
2022/05/15 05:42:35;;;;;;;16.15;7.03;;;;;;;14.23;62.86;101728.16;3564593;40;20041;-64
2022/05/15 05:45:02;;;;;;;24.65;7.15;;;;;;;14.35;63.37;101731.94;3573631;40;20291;-64
2022/05/15 05:47:30;;;;;;;20.23;7.75;;;;;;;14.43;63.01;101735.03;3574305;40;20057;-63
2022/05/15 05:49:56;;;;;;;22.95;7.93;;;;;;;14.47;62.31;101730.31;3574198;40;20059;-64
2022/05/15 05:52:23;;;;;;;22.65;7.40;;;;;;;14.61;63.03;101733.88;3573816;40;20052;-64
2022/05/15 05:54:50;;;;;;;22.20;7.75;;;;;;;14.73;62.51;101728.66;3574450;40;20061;-64
2022/05/15 05:57:16;;;;;;;23.85;7.72;;;;;;;14.89;61.85;101732.09;3574084;40;20063;-64
2022/05/15 05:59:42;;;;;;;18.48;7.63;;;;;;;15.04;61.40;101730.22;3573328;40;20072;-64
2022/05/15 06:02:09;;;;;;;22.50;7.75;;;;;;;15.18;61.31;101732.00;3574703;40;20060;-64
2022/05/15 06:04:42;;;;;;;20.67;7.68;;;;;;;15.26;60.84;101735.06;3575953;40;20059;-64
2022/05/15 06:07:21;;;;;;;20.48;8.40;;;;;;;15.39;60.52;101735.97;3576432;40;20091;-63
2022/05/15 06:09:50;;;;;;;21.15;8.02;;;;;;;15.42;60.23;101724.94;3576677;40;20108;-64
2022/05/15 06:12:23;;;;;;;23.42;8.43;;;;;;;15.62;59.99;101725.41;3574869;40;20384;-63
2022/05/15 06:14:52;;;;;;;22.57;8.07;;;;;;;15.79;59.57;101727.84;3572162;40;20134;-63
2022/05/15 06:17:27;;;;;;;22.15;7.93;;;;;;;16.00;59.35;101731.78;3574913;40;20293;-63
2022/05/15 06:19:56;;;;;;;23.05;8.18;;;;;;;16.22;58.74;101727.56;3569503;40;20135;-63
2022/05/15 06:22:22;;;;;;;23.00;7.82;;;;;;;16.42;58.01;101726.97;3575027;40;20052;-63
2022/05/15 06:24:48;;;;;;;20.55;7.50;;;;;;;16.62;57.67;101717.41;3570512;40;20057;-63
2022/05/15 06:27:14;;;;;;;17.95;7.65;;;;;;;16.85;57.33;101726.59;3573625;40;20060;-64
2022/05/15 06:29:41;;;;;;;20.52;8.18;;;;;;;16.98;56.39;101731.13;3573985;40;20136;-64
2022/05/15 06:32:09;;;;;;;21.40;7.80;;;;;;;17.06;56.49;101709.69;3574511;40;20342;-64
2022/05/15 06:34:36;;;;;;;21.50;7.90;;;;;;;17.31;56.66;101723.13;3566162;40;20119;-65
2022/05/15 06:37:02;;;;;;;21.30;7.97;;;;;;;17.50;55.50;101719.03;3574086;40;20053;-64
2022/05/15 06:39:27;;;;;;;20.15;7.80;;;;;;;17.70;55.55;101715.66;3573655;40;20056;-64
2022/05/15 06:41:59;;;;;;;21.23;8.60;;;;;;;17.90;55.65;101724.13;3573783;40;20075;-65
2022/05/15 06:44:25;;;;;;;19.77;7.88;;;;;;;17.99;54.49;101710.66;3573594;40;20092;-64
2022/05/15 06:46:51;;;;;;;22.98;8.25;;;;;;;18.23;54.59;101718.72;3570592;40;20049;-64
2022/05/15 06:49:16;;;;;;;22.20;7.95;;;;;;;18.21;54.14;101698.94;3573219;40;20059;-64
2022/05/15 06:51:43;;;;;;;19.20;8.05;;;;;;;18.54;53.42;101721.69;3573237;40;20061;-64
2022/05/15 06:54:09;;;;;;;23.13;8.65;;;;;;;18.64;52.11;101706.34;3573981;40;20048;-65
2022/05/15 06:59:18;;;;;;;19.30;7.38;;;;;;;19.17;52.40;101717.41;3574958;40;20362;-63
2022/05/15 07:01:44;;;;;;;15.50;7.18;;;;;;;19.29;51.05;101722.81;3573848;40;20088;-64
2022/05/15 07:04:09;;;;;;;18.83;8.02;;;;;;;19.41;50.22;101721.75;3570174;40;20376;-63
2022/05/15 07:06:35;;;;;;;17.15;7.50;;;;;;;19.49;49.85;101728.31;3572815;40;20126;-65
2022/05/15 07:09:01;;;;;;;18.77;8.23;;;;;;;19.62;49.86;101729.97;3573479;40;20064;-64
2022/05/15 07:11:27;;;;;;;22.20;8.10;;;;;;;19.75;49.42;101741.59;3572892;40;20057;-64
2022/05/15 07:13:53;;;;;;;19.45;7.82;;;;;;;19.94;51.03;101727.22;3570842;40;20049;-65
2022/05/15 07:16:19;;;;;;;16.17;7.43;;;;;;;20.13;49.22;101732.78;3571511;40;20052;-63
2022/05/15 07:18:45;;;;;;;15.77;7.50;;;;;;;20.09;47.32;101725.88;3560618;40;20059;-65
2022/05/15 07:21:11;;;;;;;16.55;7.80;;;;;;;20.30;47.74;101733.19;3568286;40;20112;-64
2022/05/15 07:23:37;;;;;;;18.27;7.63;;;;;;;20.45;47.04;101737.28;3569883;40;20079;-64
2022/05/15 07:26:03;;;;;;;15.25;7.00;;;;;;;20.54;47.59;101733.75;3573622;40;20364;-64
2022/05/15 07:28:29;;;;;;;15.18;7.50;;;;;;;20.75;47.04;101728.22;3573262;40;20040;-64
2022/05/15 07:30:55;;;;;;;15.13;7.40;;;;;;;21.03;46.38;101736.66;3569617;40;20114;-64
2022/05/15 07:33:23;;;;;;;17.20;7.15;;;;;;;21.27;45.75;101722.56;3573975;40;20048;-64
2022/05/15 07:35:49;;;;;;;15.10;6.65;;;;;;;21.61;44.96;101723.03;3573951;40;20064;-63
2022/05/15 07:38:17;;;;;;;15.50;6.93;;;;;;;21.87;43.59;101733.38;3573008;40;20064;-64
2022/05/15 07:40:44;;;;;;;15.82;7.00;;;;;;;21.87;43.02;101711.50;3573382;40;20139;-65
2022/05/15 07:43:14;;;;;;;17.42;7.10;;;;;;;22.20;43.58;101726.56;3573359;40;20067;-65
2022/05/15 07:45:40;;;;;;;15.52;6.88;;;;;;;22.47;42.60;101723.88;3572805;40;20126;-64
2022/05/15 07:48:08;;;;;;;14.10;6.88;;;;;;;22.70;41.24;101727.06;3573473;40;20383;-64
2022/05/15 07:50:35;;;;;;;14.82;7.22;;;;;;;22.76;41.88;101725.59;3573957;40;20122;-64
2022/05/15 07:53:01;;;;;;;14.77;6.70;;;;;;;22.76;40.83;101719.28;3564075;40;20376;-65
2022/05/15 07:55:28;;;;;;;20.33;6.95;;;;;;;22.77;41.07;101729.22;3572950;40;20089;-63
2022/05/15 07:57:53;;;;;;;13.95;6.70;;;;;;;22.93;40.99;101727.59;3573574;40;20040;-65
2022/05/15 08:00:20;;;;;;;18.58;7.70;;;;;;;23.03;40.72;101724.78;3573449;40;20048;-63
2022/05/15 08:02:46;;;;;;;13.07;6.78;;;;;;;23.26;40.73;101727.06;3573953;40;20060;-64
2022/05/15 08:08:09;;;;;;;11.70;6.00;;;;;;;23.64;40.17;101720.38;3574647;40;20075;-63
2022/05/15 08:10:46;;;;;;;15.45;6.95;;;;;;;23.91;39.69;101718.56;3565727;40;20296;-64
2022/05/15 08:13:25;;;;;;;13.38;6.60;;;;;;;24.09;39.83;101719.38;3568842;40;20065;-65
2022/05/15 08:15:52;;;;;;;14.45;6.03;;;;;;;24.37;38.35;101711.81;3569391;40;20396;-66
2022/05/15 08:23:54;;;;;;;12.15;6.15;;;;;;;24.52;37.77;101698.38;3572164;40;20114;-64
2022/05/15 08:26:20;;;;;;;12.00;6.22;;;;;;;24.56;37.85;101688.75;3573452;40;20700;-65
2022/05/15 08:28:47;;;;;;;17.30;6.35;;;;;;;24.79;37.79;101691.75;3569971;40;20052;-64
2022/05/15 08:31:14;;;;;;;13.05;6.90;;;;;;;24.70;37.52;101660.63;3573011;40;20056;-65
2022/05/15 08:33:41;;;;;;;13.57;6.35;;;;;;;25.07;36.50;101697.00;3573249;40;20522;-64
2022/05/15 08:36:08;;;;;;;14.20;5.82;;;;;;;25.10;36.54;101659.00;3573021;40;20477;-64
2022/05/15 08:38:37;;;;;;;12.93;6.70;;;;;;;25.30;36.04;101677.97;3571815;40;20268;-64
2022/05/15 08:41:24;;;;;;;13.68;5.90;;;;;;;25.35;34.67;101673.69;3572669;40;20096;-64
2022/05/15 08:44:10;;;;;;;15.23;6.30;;;;;;;25.41;35.30;101672.13;3568412;40;20269;-63
2022/05/15 08:47:03;;;;;;;11.05;5.82;;;;;;;25.77;34.02;101674.53;3572178;40;20045;-64
2022/05/15 08:49:48;;;;;;;12.70;5.70;;;;;;;25.94;34.41;101673.47;3573298;40;20049;-64
2022/05/15 08:52:57;;;;;;;15.05;6.18;;;;;;;26.20;33.21;101661.34;3574977;40;20052;-64
2022/05/15 08:55:43;;;;;;;14.30;6.18;;;;;;;26.23;32.31;101653.63;3572831;40;20466;-64
2022/05/15 08:58:35;;;;;;;10.57;5.63;;;;;;;26.46;33.67;101663.88;3572152;40;20124;-65
2022/05/15 09:01:05;;;;;;;13.38;5.80;;;;;;;26.33;31.70;101668.06;3571999;40;20088;-64
2022/05/15 09:03:35;;;;;;;12.27;6.07;;;;;;;26.40;31.49;101668.19;3573384;40;20425;-64
2022/05/15 09:06:10;;;;;;;13.80;6.13;;;;;;;26.44;32.87;101666.78;3572177;40;20096;-64
2022/05/15 09:09:23;;;;;;;10.82;5.25;;;;;;;26.73;31.33;101657.03;3570899;40;20057;-64
2022/05/15 09:11:55;;;;;;;12.60;5.10;;;;;;;27.07;29.92;101660.28;3575105;40;20439;-64
2022/05/15 09:14:41;;;;;;;11.80;4.60;;;;;;;27.39;28.84;101661.09;3573611;40;20114;-63
2022/05/15 09:17:32;;;;;;;12.98;4.65;;;;;;;27.63;29.58;101659.19;3574441;40;20330;-65
2022/05/15 09:20:07;;;;;;;9.35;4.47;;;;;;;27.49;29.88;101669.97;3563491;40;20053;-67
2022/05/15 09:22:42;;;;;;;9.70;4.28;;;;;;;27.74;29.42;101661.47;3569437;40;20053;-64
2022/05/15 09:25:20;;;;;;;13.20;4.10;;;;;;;27.73;28.18;101665.28;3571967;40;20062;-64
2022/05/15 09:28:04;;;;;;;11.85;4.70;;;;;;;27.68;28.07;101670.50;3571997;40;20065;-64
2022/05/15 09:30:49;;;;;;;8.35;4.13;;;;;;;27.84;26.83;101661.25;3573225;40;20061;-64
2022/05/15 09:33:58;;;;;;;8.27;3.88;;;;;;;27.77;25.79;101655.59;3575573;40;20068;-64
2022/05/15 09:36:42;;;;;;;11.15;4.13;;;;;;;27.76;27.35;101640.91;3572999;40;20056;-65
2022/05/15 09:39:16;;;;;;;13.70;4.93;;;;;;;28.06;27.77;101649.25;3573351;40;20052;-65
2022/05/15 09:44:35;;;;;;;10.35;4.05;;;;;;;28.12;26.27;101640.19;3574234;40;20114;-64
2022/05/15 09:47:10;;;;;;;10.02;4.40;;;;;;;28.11;26.72;101637.63;3570854;40;20056;-63
2022/05/15 09:49:35;;;;;;;11.13;4.13;;;;;;;28.22;27.65;101634.38;3573918;40;20083;-63
2022/05/15 09:52:29;;;;;;;13.00;3.97;;;;;;;28.29;25.83;101621.53;3575062;40;20383;-64
2022/05/15 09:55:15;;;;;;;8.35;3.92;;;;;;;28.51;25.17;101636.28;3571376;40;20061;-64
2022/05/15 09:58:03;;;;;;;7.57;3.38;;;;;;;28.71;26.84;101631.00;3574101;40;20171;-64
2022/05/15 10:00:35;;;;;;;13.02;4.22;;;;;;;28.89;25.31;101628.66;3573949;40;20138;-63
2022/05/15 10:03:22;;;;;;;11.07;3.78;;;;;;;28.82;23.00;101636.03;3571008;40;20044;-63
2022/05/15 10:06:06;;;;;;;7.32;3.20;;;;;;;28.81;23.53;101631.53;3573948;40;20053;-62
2022/05/15 10:08:32;;;;;;;10.52;3.63;;;;;;;28.77;25.00;101633.00;3573741;40;20048;-63
2022/05/15 10:11:06;;;;;;;7.28;3.20;;;;;;;29.00;23.43;101634.72;3569451;40;20060;-63
2022/05/15 10:13:42;;;;;;;7.15;3.03;;;;;;;29.11;24.76;101637.00;3572310;40;20139;-64
2022/05/15 10:16:18;;;;;;;12.73;3.22;;;;;;;29.23;23.74;101632.66;3574327;40;20045;-64
2022/05/15 10:19:04;;;;;;;11.07;3.55;;;;;;;29.03;22.94;101623.31;3568457;40;20064;-65
2022/05/15 10:21:50;;;;;;;13.07;3.65;;;;;;;29.05;23.55;101622.06;3573896;40;20314;-62
2022/05/15 10:24:26;;;;;;;8.05;3.70;;;;;;;29.09;24.59;101628.91;3575673;40;20138;-63
2022/05/15 10:27:15;;;;;;;8.30;3.30;;;;;;;29.03;23.97;101637.16;3574319;40;20122;-64
2022/05/15 10:30:05;;;;;;;6.85;3.58;;;;;;;28.85;24.46;101629.25;3573620;40;20048;-64
2022/05/15 10:32:50;;;;;;;10.20;3.20;;;;;;;28.95;24.04;101620.63;3573659;40;20045;-63
2022/05/15 10:35:39;;;;;;;9.98;3.58;;;;;;;29.23;24.66;101615.19;3574142;40;20343;-63
2022/05/15 10:38:40;;;;;;;7.55;3.15;;;;;;;29.32;24.29;101603.75;3571606;40;20056;-63
2022/05/15 10:41:26;;;;;;;7.72;3.53;;;;;;;29.50;22.98;101596.88;3571125;40;20088;-63
2022/05/15 10:44:20;;;;;;;8.45;2.83;;;;;;;29.64;23.12;101604.25;3573356;40;20061;-64
2022/05/15 10:47:13;;;;;;;9.35;3.30;;;;;;;29.86;23.74;101584.81;3574653;40;20064;-63
2022/05/15 10:50:27;;;;;;;11.60;3.50;;;;;;;29.73;24.08;101586.41;3573525;40;20079;-62
2022/05/15 10:59:42;;;;;;;10.73;3.00;;;;;;;29.73;23.23;101600.28;3568520;40;20102;-64
2022/05/15 11:02:55;;;;;;;6.70;3.20;;;;;;;29.65;22.86;101592.09;3572487;40;20048;-65
2022/05/15 11:05:45;;;;;;;7.55;3.20;;;;;;;29.47;22.35;101598.13;3572587;40;20052;-63
2022/05/15 11:08:59;;;;;;;9.93;3.40;;;;;;;29.23;22.96;101593.03;3568303;40;20065;-63
2022/05/15 11:11:39;;;;;;;8.55;3.25;;;;;;;29.55;23.16;101588.81;3608978;23;20058;-65
2022/05/15 11:14:27;;;;;;;9.32;3.50;;;;;;;29.53;23.89;101579.88;3578845;40;20801;-66
2022/05/15 11:17:20;;;;;;;8.05;3.35;;;;;;;29.93;23.28;101585.69;3580380;40;20059;-65
2022/05/15 11:19:46;;;;;;;8.80;3.70;;;;;;;29.99;23.36;101571.00;3582755;40;20130;-65
2022/05/15 11:22:34;;;;;;;10.13;3.08;;;;;;;30.25;22.69;101568.38;3571806;40;20052;-66
2022/05/15 11:25:09;;;;;;;6.97;3.13;;;;;;;30.44;22.24;101560.34;3575981;40;20060;-64
2022/05/15 11:27:55;;;;;;;9.20;3.15;;;;;;;30.53;22.06;101559.09;3573633;40;20359;-66
2022/05/15 11:30:35;;;;;;;8.13;3.30;;;;;;;30.83;21.54;101555.97;3567487;40;20053;-65
2022/05/15 11:33:17;;;;;;;8.63;3.67;;;;;;;30.72;21.53;101552.75;3571711;40;20051;-66
2022/05/15 11:36:13;;;;;;;8.00;4.20;;;;;;;31.17;22.02;101554.94;3577062;40;20060;-64
2022/05/15 11:39:05;;;;;;;7.18;2.67;;;;;;;30.94;20.82;101549.81;3569123;40;20096;-64
2022/05/15 11:42:10;;;;;;;6.50;2.90;;;;;;;30.94;21.37;101541.50;3569732;40;20156;-64
2022/05/15 11:44:43;;;;;;;9.13;2.80;;;;;;;31.29;20.70;101542.13;3571154;40;20111;-65
2022/05/15 11:47:14;;;;;;;;;;;;;;;31.34;20.99;101527.66;3574729;40;20118;-66
2022/05/15 11:50:03;;;;;;;10.10;3.70;;;;;;;31.36;19.94;101522.72;3571405;40;19956;-65
2022/05/15 11:52:40;;;;;;;7.45;3.30;;;;;;;31.43;19.68;101529.97;3571232;40;20068;-64
2022/05/15 11:55:47;;;;;;;10.88;3.65;;;;;;;31.59;20.48;101519.44;3576365;40;20048;-65
2022/05/15 11:58:40;;;;;;;7.05;2.88;;;;;;;31.64;20.61;101517.75;3571105;40;20058;-65
2022/05/15 12:01:17;;;;;;;7.70;2.90;;;;;;;31.43;19.59;101523.53;3570113;40;20291;-65
2022/05/15 12:03:52;;;;;;;9.32;3.10;;;;;;;31.15;20.32;101523.78;3571527;40;20107;-68
2022/05/15 12:06:29;;;;;;;7.40;2.80;;;;;;;31.12;20.46;101507.53;3572437;40;20045;-65